This is the latest recevied weather packets stored in our database for station/object OE-11179. If no packets are shown the sender has not sent any weather packets the latest 10 day(s).
| Time | Temp. | Humidity | Pressure | Rain* | Wind** | Luminosity | Snow |
|---|---|---|---|---|---|---|---|
| 1787919932 | 27.78° C | 46% | - | 0 mm | - | - | - |
| 1787919104 | 27.78° C | 42% | - | 0 mm | - | - | - |
| 1787918731 | 30° C | 29% | - | 0 mm | - | - | - |
| 1787918131 | 30° C | 32% | - | 0 mm | - | - | - |
| 1787917304 | 30.56° C | 28% | - | 0 mm | - | - | - |
| 1787916932 | 29.44° C | 30% | - | 0 mm | - | - | - |
| 1787916332 | 29.44° C | 29% | - | 0 mm | - | - | - |
| 1787915504 | 28.33° C | 36% | - | 0 mm | - | - | - |
| 1787915132 | 27.78° C | 50% | - | 0 mm | - | - | - |
| 1787914532 | 27.78° C | 47% | - | 0 mm | - | - | - |
| 1787913705 | 28.89° C | 44% | - | 0 mm | - | - | - |
| 1787913332 | 28.33° C | 48% | - | 0 mm | - | - | - |
| 1787912732 | 27.78° C | 50% | - | 0 mm | - | - | - |
| 1787911905 | 27.22° C | 48% | - | 0 mm | - | - | - |
| 1787911532 | 27.22° C | 47% | - | 0 mm | - | - | - |
| 1787910931 | 26.11° C | 53% | - | 0 mm | - | - | - |
| 1787910105 | 26.11° C | 51% | - | 0 mm | - | - | - |
| 1787909732 | 25.56° C | 54% | - | 0 mm | - | - | - |
| 1787909132 | 25° C | 52% | - | 0 mm | - | - | - |
| 1787908304 | 24.44° C | 57% | - | 0 mm | - | - | - |
| 1787907932 | 23.89° C | 56% | - | 0 mm | - | - | - |
| 1787907332 | 23.33° C | 60% | - | 0 mm | - | - | - |
| 1787906504 | 22.78° C | 58% | - | 0 mm | - | - | - |
| 1787906129 | 22.22° C | 61% | - | 0 mm | - | - | - |
| 1787905528 | 21.11° C | 64% | - | 0 mm | - | - | - |
* Rain latest hour (hover to see other rain measurements)
** Current wind speed in m/s (hover to see current wind gust speed)